<?xml version="1.0" encoding="UTF-8" standalone="no" ?>
<gpx xmlns="http://www.topografix.com/GPX/1/1" xmlns:xsi="http://www.w3.org/2001/XMLSchema-instance" xsi:schemaLocation="http://www.topografix.com/GPX/1/1 http://www.topografix.com/GPX/1/1/gpx.xsd" version="1.1" creator="VisuGPX - https://www.visugpx.com">
  <metadata>
    <name>Rando Muco 2022 30 kms</name>
  </metadata>
  <wpt lat="48.52114" lon="-3.34048">
    <ele>189</ele>
    <name><![CDATA[]]></name>
    <desc><![CDATA[]]></desc>
  </wpt>
  <wpt lat="48.51691" lon="-3.40805">
    <ele>135.2</ele>
    <name><![CDATA[]]></name>
    <desc><![CDATA[]]></desc>
  </wpt>
  <wpt lat="48.52997" lon="-3.4165">
    <ele>174.6</ele>
    <name><![CDATA[]]></name>
    <desc><![CDATA[]]></desc>
  </wpt>
  <trk>
    <name><![CDATA[6996366-Rando pédestre 30 KM 2021]]></name>
    <trkseg>
      <trkpt lat="48.54651" lon="-3.39649">
        <ele>90</ele>
        <time>2022-04-21T16:54:19Z</time>
      </trkpt>
      <trkpt lat="48.54624" lon="-3.39558">
        <ele>91</ele>
        <time>2022-04-21T16:55:47Z</time>
      </trkpt>
      <trkpt lat="48.54554" lon="-3.39555">
        <ele>92</ele>
        <time>2022-04-21T16:57:21Z</time>
      </trkpt>
      <trkpt lat="48.54515" lon="-3.39576">
        <ele>93</ele>
        <time>2022-04-21T16:58:16Z</time>
      </trkpt>
      <trkpt lat="48.54472" lon="-3.39602">
        <ele>94</ele>
        <time>2022-04-21T16:59:18Z</time>
      </trkpt>
      <trkpt lat="48.54418" lon="-3.39607">
        <ele>94</ele>
        <time>2022-04-21T17:00:30Z</time>
      </trkpt>
      <trkpt lat="48.54376" lon="-3.39573">
        <ele>95</ele>
        <time>2022-04-21T17:01:33Z</time>
      </trkpt>
      <trkpt lat="48.54281" lon="-3.39576">
        <ele>98</ele>
        <time>2022-04-21T17:03:40Z</time>
      </trkpt>
      <trkpt lat="48.54278" lon="-3.39667">
        <ele>97</ele>
        <time>2022-04-21T17:05:01Z</time>
      </trkpt>
      <trkpt lat="48.54195" lon="-3.3966">
        <ele>101</ele>
        <time>2022-04-21T17:06:52Z</time>
      </trkpt>
      <trkpt lat="48.54152" lon="-3.39675">
        <ele>101</ele>
        <time>2022-04-21T17:07:51Z</time>
      </trkpt>
      <trkpt lat="48.54102" lon="-3.3967">
        <ele>103</ele>
        <time>2022-04-21T17:08:57Z</time>
      </trkpt>
      <trkpt lat="48.54048" lon="-3.39683">
        <ele>104</ele>
        <time>2022-04-21T17:10:10Z</time>
      </trkpt>
      <trkpt lat="48.53976" lon="-3.39691">
        <ele>104</ele>
        <time>2022-04-21T17:11:47Z</time>
      </trkpt>
      <trkpt lat="48.5392" lon="-3.39639">
        <ele>107</ele>
        <time>2022-04-21T17:13:14Z</time>
      </trkpt>
      <trkpt lat="48.53848" lon="-3.39513">
        <ele>105</ele>
        <time>2022-04-21T17:15:41Z</time>
      </trkpt>
      <trkpt lat="48.53843" lon="-3.39419">
        <ele>108</ele>
        <time>2022-04-21T17:17:05Z</time>
      </trkpt>
      <trkpt lat="48.53796" lon="-3.39245">
        <ele>122</ele>
        <time>2022-04-21T17:19:51Z</time>
      </trkpt>
      <trkpt lat="48.53735" lon="-3.39211">
        <ele>119</ele>
        <time>2022-04-21T17:21:18Z</time>
      </trkpt>
      <trkpt lat="48.53692" lon="-3.39179">
        <ele>123</ele>
        <time>2022-04-21T17:22:22Z</time>
      </trkpt>
      <trkpt lat="48.53647" lon="-3.39192">
        <ele>121</ele>
        <time>2022-04-21T17:23:23Z</time>
      </trkpt>
      <trkpt lat="48.53591" lon="-3.39169">
        <ele>127</ele>
        <time>2022-04-21T17:24:40Z</time>
      </trkpt>
      <trkpt lat="48.53568" lon="-3.39185">
        <ele>124</ele>
        <time>2022-04-21T17:25:14Z</time>
      </trkpt>
      <trkpt lat="48.5352" lon="-3.39148">
        <ele>131</ele>
        <time>2022-04-21T17:26:26Z</time>
      </trkpt>
      <trkpt lat="48.53482" lon="-3.39166">
        <ele>130</ele>
        <time>2022-04-21T17:27:19Z</time>
      </trkpt>
      <trkpt lat="48.53419" lon="-3.39182">
        <ele>124</ele>
        <time>2022-04-21T17:28:44Z</time>
      </trkpt>
      <trkpt lat="48.53363" lon="-3.392">
        <ele>117</ele>
        <time>2022-04-21T17:30:01Z</time>
      </trkpt>
      <trkpt lat="48.53316" lon="-3.39294">
        <ele>105</ele>
        <time>2022-04-21T17:31:45Z</time>
      </trkpt>
      <trkpt lat="48.53223" lon="-3.39339">
        <ele>108</ele>
        <time>2022-04-21T17:33:55Z</time>
      </trkpt>
      <trkpt lat="48.53153" lon="-3.39375">
        <ele>110</ele>
        <time>2022-04-21T17:35:34Z</time>
      </trkpt>
      <trkpt lat="48.53072" lon="-3.39399">
        <ele>112</ele>
        <time>2022-04-21T17:37:24Z</time>
      </trkpt>
      <trkpt lat="48.53009" lon="-3.39399">
        <ele>112</ele>
        <time>2022-04-21T17:38:48Z</time>
      </trkpt>
      <trkpt lat="48.52957" lon="-3.39406">
        <ele>108</ele>
        <time>2022-04-21T17:39:58Z</time>
      </trkpt>
      <trkpt lat="48.5293" lon="-3.39328">
        <ele>119</ele>
        <time>2022-04-21T17:41:15Z</time>
      </trkpt>
      <trkpt lat="48.52875" lon="-3.39294">
        <ele>115</ele>
        <time>2022-04-21T17:42:35Z</time>
      </trkpt>
      <trkpt lat="48.52806" lon="-3.39305">
        <ele>108</ele>
        <time>2022-04-21T17:44:07Z</time>
      </trkpt>
      <trkpt lat="48.52722" lon="-3.39302">
        <ele>108</ele>
        <time>2022-04-21T17:45:59Z</time>
      </trkpt>
      <trkpt lat="48.52637" lon="-3.39297">
        <ele>114</ele>
        <time>2022-04-21T17:47:53Z</time>
      </trkpt>
      <trkpt lat="48.52682" lon="-3.39221">
        <ele>117</ele>
        <time>2022-04-21T17:49:23Z</time>
      </trkpt>
      <trkpt lat="48.52702" lon="-3.39116">
        <ele>122</ele>
        <time>2022-04-21T17:51:00Z</time>
      </trkpt>
      <trkpt lat="48.52722" lon="-3.39035">
        <ele>125</ele>
        <time>2022-04-21T17:52:16Z</time>
      </trkpt>
      <trkpt lat="48.52735" lon="-3.38933">
        <ele>130</ele>
        <time>2022-04-21T17:53:48Z</time>
      </trkpt>
      <trkpt lat="48.52672" lon="-3.38785">
        <ele>149</ele>
        <time>2022-04-21T17:56:23Z</time>
      </trkpt>
      <trkpt lat="48.52699" lon="-3.38659">
        <ele>150</ele>
        <time>2022-04-21T17:58:20Z</time>
      </trkpt>
      <trkpt lat="48.52659" lon="-3.38571">
        <ele>154</ele>
        <time>2022-04-21T17:59:55Z</time>
      </trkpt>
      <trkpt lat="48.5263" lon="-3.38589">
        <ele>156</ele>
        <time>2022-04-21T18:00:37Z</time>
      </trkpt>
      <trkpt lat="48.52575" lon="-3.38565">
        <ele>161</ele>
        <time>2022-04-21T18:01:53Z</time>
      </trkpt>
      <trkpt lat="48.52528" lon="-3.38531">
        <ele>166</ele>
        <time>2022-04-21T18:03:02Z</time>
      </trkpt>
      <trkpt lat="48.52553" lon="-3.38477">
        <ele>166</ele>
        <time>2022-04-21T18:04:01Z</time>
      </trkpt>
      <trkpt lat="48.52684" lon="-3.38307">
        <ele>171</ele>
        <time>2022-04-21T18:07:51Z</time>
      </trkpt>
      <trkpt lat="48.5269" lon="-3.3827">
        <ele>173</ele>
        <time>2022-04-21T18:08:25Z</time>
      </trkpt>
      <trkpt lat="48.5279" lon="-3.38302">
        <ele>170</ele>
        <time>2022-04-21T18:10:41Z</time>
      </trkpt>
      <trkpt lat="48.52699" lon="-3.38182">
        <ele>177</ele>
        <time>2022-04-21T18:13:23Z</time>
      </trkpt>
      <trkpt lat="48.52657" lon="-3.38106">
        <ele>183</ele>
        <time>2022-04-21T18:14:50Z</time>
      </trkpt>
      <trkpt lat="48.52603" lon="-3.38049">
        <ele>186</ele>
        <time>2022-04-21T18:16:18Z</time>
      </trkpt>
      <trkpt lat="48.52541" lon="-3.38025">
        <ele>190</ele>
        <time>2022-04-21T18:17:43Z</time>
      </trkpt>
      <trkpt lat="48.52458" lon="-3.38025">
        <ele>195</ele>
        <time>2022-04-21T18:19:34Z</time>
      </trkpt>
      <trkpt lat="48.52399" lon="-3.38017">
        <ele>198</ele>
        <time>2022-04-21T18:20:53Z</time>
      </trkpt>
      <trkpt lat="48.52339" lon="-3.37983">
        <ele>201</ele>
        <time>2022-04-21T18:22:19Z</time>
      </trkpt>
      <trkpt lat="48.523" lon="-3.37944">
        <ele>201</ele>
        <time>2022-04-21T18:23:21Z</time>
      </trkpt>
      <trkpt lat="48.52224" lon="-3.37855">
        <ele>202</ele>
        <time>2022-04-21T18:25:29Z</time>
      </trkpt>
      <trkpt lat="48.52181" lon="-3.37835">
        <ele>201</ele>
        <time>2022-04-21T18:26:29Z</time>
      </trkpt>
      <trkpt lat="48.5207" lon="-3.37819">
        <ele>204</ele>
        <time>2022-04-21T18:28:58Z</time>
      </trkpt>
      <trkpt lat="48.52028" lon="-3.37808">
        <ele>205</ele>
        <time>2022-04-21T18:29:55Z</time>
      </trkpt>
      <trkpt lat="48.52003" lon="-3.37738">
        <ele>207</ele>
        <time>2022-04-21T18:31:05Z</time>
      </trkpt>
      <trkpt lat="48.52023" lon="-3.37615">
        <ele>207</ele>
        <time>2022-04-21T18:32:57Z</time>
      </trkpt>
      <trkpt lat="48.5209" lon="-3.37461">
        <ele>205</ele>
        <time>2022-04-21T18:35:40Z</time>
      </trkpt>
      <trkpt lat="48.52154" lon="-3.37357">
        <ele>206</ele>
        <time>2022-04-21T18:37:46Z</time>
      </trkpt>
      <trkpt lat="48.52201" lon="-3.37375">
        <ele>205</ele>
        <time>2022-04-21T18:38:50Z</time>
      </trkpt>
      <trkpt lat="48.52264" lon="-3.37435">
        <ele>205</ele>
        <time>2022-04-21T18:40:30Z</time>
      </trkpt>
      <trkpt lat="48.52373" lon="-3.37579">
        <ele>207</ele>
        <time>2022-04-21T18:43:43Z</time>
      </trkpt>
      <trkpt lat="48.52397" lon="-3.37615">
        <ele>208</ele>
        <time>2022-04-21T18:44:28Z</time>
      </trkpt>
      <trkpt lat="48.52415" lon="-3.37589">
        <ele>207</ele>
        <time>2022-04-21T18:45:01Z</time>
      </trkpt>
      <trkpt lat="48.52453" lon="-3.37393">
        <ele>202</ele>
        <time>2022-04-21T18:48:02Z</time>
      </trkpt>
      <trkpt lat="48.52496" lon="-3.37164">
        <ele>188</ele>
        <time>2022-04-21T18:51:32Z</time>
      </trkpt>
      <trkpt lat="48.52517" lon="-3.37088">
        <ele>181</ele>
        <time>2022-04-21T18:52:45Z</time>
      </trkpt>
      <trkpt lat="48.52546" lon="-3.37052">
        <ele>177</ele>
        <time>2022-04-21T18:53:35Z</time>
      </trkpt>
      <trkpt lat="48.5255" lon="-3.37002">
        <ele>173</ele>
        <time>2022-04-21T18:54:20Z</time>
      </trkpt>
      <trkpt lat="48.52571" lon="-3.36952">
        <ele>167</ele>
        <time>2022-04-21T18:55:12Z</time>
      </trkpt>
      <trkpt lat="48.52616" lon="-3.36838">
        <ele>150</ele>
        <time>2022-04-21T18:57:09Z</time>
      </trkpt>
      <trkpt lat="48.52621" lon="-3.36764">
        <ele>143</ele>
        <time>2022-04-21T18:58:15Z</time>
      </trkpt>
      <trkpt lat="48.52661" lon="-3.36699">
        <ele>132</ele>
        <time>2022-04-21T18:59:34Z</time>
      </trkpt>
      <trkpt lat="48.52686" lon="-3.36613">
        <ele>129</ele>
        <time>2022-04-21T19:00:57Z</time>
      </trkpt>
      <trkpt lat="48.52686" lon="-3.36517">
        <ele>129</ele>
        <time>2022-04-21T19:02:21Z</time>
      </trkpt>
      <trkpt lat="48.52679" lon="-3.36407">
        <ele>130</ele>
        <time>2022-04-21T19:03:59Z</time>
      </trkpt>
      <trkpt lat="48.5263" lon="-3.36258">
        <ele>132</ele>
        <time>2022-04-21T19:06:26Z</time>
      </trkpt>
      <trkpt lat="48.52636" lon="-3.36214">
        <ele>132</ele>
        <time>2022-04-21T19:07:06Z</time>
      </trkpt>
      <trkpt lat="48.52603" lon="-3.36094">
        <ele>137</ele>
        <time>2022-04-21T19:09:01Z</time>
      </trkpt>
      <trkpt lat="48.5249" lon="-3.35856">
        <ele>135</ele>
        <time>2022-04-21T19:13:19Z</time>
      </trkpt>
      <trkpt lat="48.52411" lon="-3.35833">
        <ele>131</ele>
        <time>2022-04-21T19:15:07Z</time>
      </trkpt>
      <trkpt lat="48.52323" lon="-3.35775">
        <ele>132</ele>
        <time>2022-04-21T19:17:15Z</time>
      </trkpt>
      <trkpt lat="48.52217" lon="-3.35773">
        <ele>135</ele>
        <time>2022-04-21T19:19:36Z</time>
      </trkpt>
      <trkpt lat="48.52155" lon="-3.35634">
        <ele>137</ele>
        <time>2022-04-21T19:22:04Z</time>
      </trkpt>
      <trkpt lat="48.52122" lon="-3.35618">
        <ele>136</ele>
        <time>2022-04-21T19:22:51Z</time>
      </trkpt>
      <trkpt lat="48.52081" lon="-3.35677">
        <ele>138</ele>
        <time>2022-04-21T19:24:06Z</time>
      </trkpt>
      <trkpt lat="48.52077" lon="-3.3572">
        <ele>139</ele>
        <time>2022-04-21T19:24:45Z</time>
      </trkpt>
      <trkpt lat="48.52072" lon="-3.35796">
        <ele>142</ele>
        <time>2022-04-21T19:25:52Z</time>
      </trkpt>
      <trkpt lat="48.52095" lon="-3.35945">
        <ele>144</ele>
        <time>2022-04-21T19:28:07Z</time>
      </trkpt>
      <trkpt lat="48.52021" lon="-3.35914">
        <ele>148</ele>
        <time>2022-04-21T19:29:50Z</time>
      </trkpt>
      <trkpt lat="48.51958" lon="-3.35877">
        <ele>150</ele>
        <time>2022-04-21T19:31:20Z</time>
      </trkpt>
      <trkpt lat="48.51942" lon="-3.35719">
        <ele>145</ele>
        <time>2022-04-21T19:33:41Z</time>
      </trkpt>
      <trkpt lat="48.51918" lon="-3.35617">
        <ele>142</ele>
        <time>2022-04-21T19:35:17Z</time>
      </trkpt>
      <trkpt lat="48.51923" lon="-3.35524">
        <ele>138</ele>
        <time>2022-04-21T19:36:40Z</time>
      </trkpt>
      <trkpt lat="48.51931" lon="-3.35462">
        <ele>137</ele>
        <time>2022-04-21T19:37:35Z</time>
      </trkpt>
      <trkpt lat="48.52026" lon="-3.34736">
        <ele>168</ele>
        <time>2022-04-21T19:48:30Z</time>
      </trkpt>
      <trkpt lat="48.52114" lon="-3.34043">
        <ele>191</ele>
        <time>2022-04-21T19:58:53Z</time>
      </trkpt>
      <trkpt lat="48.51779" lon="-3.34469">
        <ele>160</ele>
        <time>2022-04-21T20:08:38Z</time>
      </trkpt>
      <trkpt lat="48.51437" lon="-3.34953">
        <ele>160</ele>
        <time>2022-04-21T20:19:03Z</time>
      </trkpt>
      <trkpt lat="48.51222" lon="-3.35264">
        <ele>149</ele>
        <time>2022-04-21T20:25:41Z</time>
      </trkpt>
      <trkpt lat="48.5127" lon="-3.35278">
        <ele>148</ele>
        <time>2022-04-21T20:26:46Z</time>
      </trkpt>
      <trkpt lat="48.51251" lon="-3.35357">
        <ele>151</ele>
        <time>2022-04-21T20:28:00Z</time>
      </trkpt>
      <trkpt lat="48.51252" lon="-3.35428">
        <ele>158</ele>
        <time>2022-04-21T20:29:03Z</time>
      </trkpt>
      <trkpt lat="48.51273" lon="-3.35608">
        <ele>175</ele>
        <time>2022-04-21T20:31:45Z</time>
      </trkpt>
      <trkpt lat="48.51248" lon="-3.35765">
        <ele>185</ele>
        <time>2022-04-21T20:34:07Z</time>
      </trkpt>
      <trkpt lat="48.51248" lon="-3.36452">
        <ele>259</ele>
        <time>2022-04-21T20:44:15Z</time>
      </trkpt>
      <trkpt lat="48.51172" lon="-3.36764">
        <ele>258</ele>
        <time>2022-04-21T20:49:08Z</time>
      </trkpt>
      <trkpt lat="48.51314" lon="-3.36874">
        <ele>259</ele>
        <time>2022-04-21T20:52:41Z</time>
      </trkpt>
      <trkpt lat="48.51299" lon="-3.36927">
        <ele>255</ele>
        <time>2022-04-21T20:53:32Z</time>
      </trkpt>
      <trkpt lat="48.51194" lon="-3.374">
        <ele>221</ele>
        <time>2022-04-21T21:00:53Z</time>
      </trkpt>
      <trkpt lat="48.51426" lon="-3.37542">
        <ele>203</ele>
        <time>2022-04-21T21:06:27Z</time>
      </trkpt>
      <trkpt lat="48.51386" lon="-3.37759">
        <ele>187</ele>
        <time>2022-04-21T21:09:47Z</time>
      </trkpt>
      <trkpt lat="48.51372" lon="-3.37823">
        <ele>185</ele>
        <time>2022-04-21T21:10:46Z</time>
      </trkpt>
      <trkpt lat="48.51396" lon="-3.37886">
        <ele>180</ele>
        <time>2022-04-21T21:11:50Z</time>
      </trkpt>
      <trkpt lat="48.51461" lon="-3.37918">
        <ele>179</ele>
        <time>2022-04-21T21:13:22Z</time>
      </trkpt>
      <trkpt lat="48.51493" lon="-3.3796">
        <ele>177</ele>
        <time>2022-04-21T21:14:18Z</time>
      </trkpt>
      <trkpt lat="48.51504" lon="-3.37993">
        <ele>173</ele>
        <time>2022-04-21T21:14:51Z</time>
      </trkpt>
      <trkpt lat="48.51539" lon="-3.38144">
        <ele>166</ele>
        <time>2022-04-21T21:17:12Z</time>
      </trkpt>
      <trkpt lat="48.5156" lon="-3.38234">
        <ele>163</ele>
        <time>2022-04-21T21:18:37Z</time>
      </trkpt>
      <trkpt lat="48.51596" lon="-3.38401">
        <ele>160</ele>
        <time>2022-04-21T21:21:12Z</time>
      </trkpt>
      <trkpt lat="48.51646" lon="-3.38665">
        <ele>164</ele>
        <time>2022-04-21T21:25:15Z</time>
      </trkpt>
      <trkpt lat="48.51693" lon="-3.38696">
        <ele>165</ele>
        <time>2022-04-21T21:26:23Z</time>
      </trkpt>
      <trkpt lat="48.51723" lon="-3.38726">
        <ele>164</ele>
        <time>2022-04-21T21:27:11Z</time>
      </trkpt>
      <trkpt lat="48.5175" lon="-3.38748">
        <ele>161</ele>
        <time>2022-04-21T21:27:52Z</time>
      </trkpt>
      <trkpt lat="48.51778" lon="-3.38761">
        <ele>162</ele>
        <time>2022-04-21T21:28:31Z</time>
      </trkpt>
      <trkpt lat="48.51818" lon="-3.38765">
        <ele>160</ele>
        <time>2022-04-21T21:29:25Z</time>
      </trkpt>
      <trkpt lat="48.51863" lon="-3.38776">
        <ele>158</ele>
        <time>2022-04-21T21:30:25Z</time>
      </trkpt>
      <trkpt lat="48.51893" lon="-3.38788">
        <ele>156</ele>
        <time>2022-04-21T21:31:07Z</time>
      </trkpt>
      <trkpt lat="48.51939" lon="-3.38818">
        <ele>154</ele>
        <time>2022-04-21T21:32:14Z</time>
      </trkpt>
      <trkpt lat="48.5196" lon="-3.38842">
        <ele>153</ele>
        <time>2022-04-21T21:32:49Z</time>
      </trkpt>
      <trkpt lat="48.5198" lon="-3.38885">
        <ele>152</ele>
        <time>2022-04-21T21:33:35Z</time>
      </trkpt>
      <trkpt lat="48.52014" lon="-3.38936">
        <ele>148</ele>
        <time>2022-04-21T21:34:39Z</time>
      </trkpt>
      <trkpt lat="48.52048" lon="-3.38988">
        <ele>143</ele>
        <time>2022-04-21T21:35:44Z</time>
      </trkpt>
      <trkpt lat="48.52076" lon="-3.39038">
        <ele>136</ele>
        <time>2022-04-21T21:36:42Z</time>
      </trkpt>
      <trkpt lat="48.52101" lon="-3.391">
        <ele>132</ele>
        <time>2022-04-21T21:37:46Z</time>
      </trkpt>
      <trkpt lat="48.5212" lon="-3.39162">
        <ele>131</ele>
        <time>2022-04-21T21:38:46Z</time>
      </trkpt>
      <trkpt lat="48.52044" lon="-3.39143">
        <ele>152</ele>
        <time>2022-04-21T21:40:29Z</time>
      </trkpt>
      <trkpt lat="48.52021" lon="-3.39082">
        <ele>156</ele>
        <time>2022-04-21T21:41:31Z</time>
      </trkpt>
      <trkpt lat="48.51987" lon="-3.39067">
        <ele>165</ele>
        <time>2022-04-21T21:42:18Z</time>
      </trkpt>
      <trkpt lat="48.51991" lon="-3.39143">
        <ele>169</ele>
        <time>2022-04-21T21:43:26Z</time>
      </trkpt>
      <trkpt lat="48.51982" lon="-3.39199">
        <ele>171</ele>
        <time>2022-04-21T21:44:17Z</time>
      </trkpt>
      <trkpt lat="48.51969" lon="-3.39245">
        <ele>171</ele>
        <time>2022-04-21T21:45:01Z</time>
      </trkpt>
      <trkpt lat="48.51908" lon="-3.39205">
        <ele>181</ele>
        <time>2022-04-21T21:46:30Z</time>
      </trkpt>
      <trkpt lat="48.51861" lon="-3.39181">
        <ele>185</ele>
        <time>2022-04-21T21:47:36Z</time>
      </trkpt>
      <trkpt lat="48.51818" lon="-3.39179">
        <ele>185</ele>
        <time>2022-04-21T21:48:33Z</time>
      </trkpt>
      <trkpt lat="48.51775" lon="-3.39207">
        <ele>183</ele>
        <time>2022-04-21T21:49:36Z</time>
      </trkpt>
      <trkpt lat="48.51738" lon="-3.39226">
        <ele>183</ele>
        <time>2022-04-21T21:50:28Z</time>
      </trkpt>
      <trkpt lat="48.51735" lon="-3.3926">
        <ele>182</ele>
        <time>2022-04-21T21:50:58Z</time>
      </trkpt>
      <trkpt lat="48.51696" lon="-3.39313">
        <ele>180</ele>
        <time>2022-04-21T21:52:08Z</time>
      </trkpt>
      <trkpt lat="48.51641" lon="-3.39348">
        <ele>180</ele>
        <time>2022-04-21T21:53:28Z</time>
      </trkpt>
      <trkpt lat="48.51635" lon="-3.39414">
        <ele>177</ele>
        <time>2022-04-21T21:54:27Z</time>
      </trkpt>
      <trkpt lat="48.51635" lon="-3.3948">
        <ele>175</ele>
        <time>2022-04-21T21:55:25Z</time>
      </trkpt>
      <trkpt lat="48.5164" lon="-3.39524">
        <ele>173</ele>
        <time>2022-04-21T21:56:05Z</time>
      </trkpt>
      <trkpt lat="48.51641" lon="-3.39599">
        <ele>170</ele>
        <time>2022-04-21T21:57:11Z</time>
      </trkpt>
      <trkpt lat="48.51659" lon="-3.39705">
        <ele>165</ele>
        <time>2022-04-21T21:58:48Z</time>
      </trkpt>
      <trkpt lat="48.5162" lon="-3.39722">
        <ele>166</ele>
        <time>2022-04-21T21:59:42Z</time>
      </trkpt>
      <trkpt lat="48.51611" lon="-3.39821">
        <ele>163</ele>
        <time>2022-04-21T22:01:10Z</time>
      </trkpt>
      <trkpt lat="48.51597" lon="-3.39871">
        <ele>164</ele>
        <time>2022-04-21T22:01:58Z</time>
      </trkpt>
      <trkpt lat="48.51581" lon="-3.39921">
        <ele>165</ele>
        <time>2022-04-21T22:02:47Z</time>
      </trkpt>
      <trkpt lat="48.51606" lon="-3.39947">
        <ele>165</ele>
        <time>2022-04-21T22:03:28Z</time>
      </trkpt>
      <trkpt lat="48.51646" lon="-3.39936">
        <ele>162</ele>
        <time>2022-04-21T22:04:22Z</time>
      </trkpt>
      <trkpt lat="48.51803" lon="-3.40115">
        <ele>146</ele>
        <time>2022-04-21T22:08:45Z</time>
      </trkpt>
      <trkpt lat="48.51812" lon="-3.40156">
        <ele>144</ele>
        <time>2022-04-21T22:09:23Z</time>
      </trkpt>
      <trkpt lat="48.51766" lon="-3.4027">
        <ele>148</ele>
        <time>2022-04-21T22:11:21Z</time>
      </trkpt>
      <trkpt lat="48.51761" lon="-3.40341">
        <ele>145</ele>
        <time>2022-04-21T22:12:24Z</time>
      </trkpt>
      <trkpt lat="48.51746" lon="-3.40377">
        <ele>148</ele>
        <time>2022-04-21T22:13:01Z</time>
      </trkpt>
      <trkpt lat="48.51739" lon="-3.40471">
        <ele>146</ele>
        <time>2022-04-21T22:14:25Z</time>
      </trkpt>
      <trkpt lat="48.51721" lon="-3.40612">
        <ele>141</ele>
        <time>2022-04-21T22:16:32Z</time>
      </trkpt>
      <trkpt lat="48.51719" lon="-3.40678">
        <ele>137</ele>
        <time>2022-04-21T22:17:30Z</time>
      </trkpt>
      <trkpt lat="48.51715" lon="-3.40735">
        <ele>135</ele>
        <time>2022-04-21T22:18:21Z</time>
      </trkpt>
      <trkpt lat="48.51693" lon="-3.40808">
        <ele>135</ele>
        <time>2022-04-21T22:19:32Z</time>
      </trkpt>
      <trkpt lat="48.5167" lon="-3.40804">
        <ele>138</ele>
        <time>2022-04-21T22:20:03Z</time>
      </trkpt>
      <trkpt lat="48.51639" lon="-3.40686">
        <ele>149</ele>
        <time>2022-04-21T22:21:55Z</time>
      </trkpt>
      <trkpt lat="48.51603" lon="-3.40654">
        <ele>154</ele>
        <time>2022-04-21T22:22:51Z</time>
      </trkpt>
      <trkpt lat="48.5155" lon="-3.40567">
        <ele>165</ele>
        <time>2022-04-21T22:24:35Z</time>
      </trkpt>
      <trkpt lat="48.51503" lon="-3.40496">
        <ele>174</ele>
        <time>2022-04-21T22:26:04Z</time>
      </trkpt>
      <trkpt lat="48.51488" lon="-3.40461">
        <ele>176</ele>
        <time>2022-04-21T22:26:41Z</time>
      </trkpt>
      <trkpt lat="48.51452" lon="-3.40382">
        <ele>181</ele>
        <time>2022-04-21T22:28:06Z</time>
      </trkpt>
      <trkpt lat="48.51432" lon="-3.40394">
        <ele>181</ele>
        <time>2022-04-21T22:28:34Z</time>
      </trkpt>
      <trkpt lat="48.51275" lon="-3.40291">
        <ele>191</ele>
        <time>2022-04-21T22:32:23Z</time>
      </trkpt>
      <trkpt lat="48.51204" lon="-3.40221">
        <ele>198</ele>
        <time>2022-04-21T22:34:16Z</time>
      </trkpt>
      <trkpt lat="48.51167" lon="-3.40164">
        <ele>204</ele>
        <time>2022-04-21T22:35:26Z</time>
      </trkpt>
      <trkpt lat="48.51147" lon="-3.4009">
        <ele>207</ele>
        <time>2022-04-21T22:36:37Z</time>
      </trkpt>
      <trkpt lat="48.51067" lon="-3.40055">
        <ele>217</ele>
        <time>2022-04-21T22:38:28Z</time>
      </trkpt>
      <trkpt lat="48.50936" lon="-3.39822">
        <ele>233</ele>
        <time>2022-04-21T22:42:58Z</time>
      </trkpt>
      <trkpt lat="48.50631" lon="-3.39726">
        <ele>238</ele>
        <time>2022-04-21T22:49:54Z</time>
      </trkpt>
      <trkpt lat="48.50608" lon="-3.39795">
        <ele>235</ele>
        <time>2022-04-21T22:51:03Z</time>
      </trkpt>
      <trkpt lat="48.50617" lon="-3.39932">
        <ele>231</ele>
        <time>2022-04-21T22:53:04Z</time>
      </trkpt>
      <trkpt lat="48.50617" lon="-3.40039">
        <ele>226</ele>
        <time>2022-04-21T22:54:39Z</time>
      </trkpt>
      <trkpt lat="48.50583" lon="-3.40203">
        <ele>216</ele>
        <time>2022-04-21T22:57:11Z</time>
      </trkpt>
      <trkpt lat="48.50514" lon="-3.40417">
        <ele>199</ele>
        <time>2022-04-21T23:00:41Z</time>
      </trkpt>
      <trkpt lat="48.50446" lon="-3.40524">
        <ele>191</ele>
        <time>2022-04-21T23:02:52Z</time>
      </trkpt>
      <trkpt lat="48.50495" lon="-3.40623">
        <ele>188</ele>
        <time>2022-04-21T23:04:42Z</time>
      </trkpt>
      <trkpt lat="48.50583" lon="-3.40619">
        <ele>188</ele>
        <time>2022-04-21T23:06:39Z</time>
      </trkpt>
      <trkpt lat="48.50654" lon="-3.40799">
        <ele>183</ele>
        <time>2022-04-21T23:09:44Z</time>
      </trkpt>
      <trkpt lat="48.50645" lon="-3.40889">
        <ele>175</ele>
        <time>2022-04-21T23:11:05Z</time>
      </trkpt>
      <trkpt lat="48.50679" lon="-3.40992">
        <ele>168</ele>
        <time>2022-04-21T23:12:46Z</time>
      </trkpt>
      <trkpt lat="48.50765" lon="-3.41031">
        <ele>166</ele>
        <time>2022-04-21T23:14:46Z</time>
      </trkpt>
      <trkpt lat="48.50822" lon="-3.41018">
        <ele>163</ele>
        <time>2022-04-21T23:16:03Z</time>
      </trkpt>
      <trkpt lat="48.5091" lon="-3.41014">
        <ele>160</ele>
        <time>2022-04-21T23:18:01Z</time>
      </trkpt>
      <trkpt lat="48.50992" lon="-3.41026">
        <ele>159</ele>
        <time>2022-04-21T23:19:51Z</time>
      </trkpt>
      <trkpt lat="48.51071" lon="-3.41027">
        <ele>157</ele>
        <time>2022-04-21T23:21:36Z</time>
      </trkpt>
      <trkpt lat="48.51115" lon="-3.4113">
        <ele>149</ele>
        <time>2022-04-21T23:23:24Z</time>
      </trkpt>
      <trkpt lat="48.5116" lon="-3.41266">
        <ele>138</ele>
        <time>2022-04-21T23:25:39Z</time>
      </trkpt>
      <trkpt lat="48.51202" lon="-3.41544">
        <ele>131</ele>
        <time>2022-04-21T23:29:51Z</time>
      </trkpt>
      <trkpt lat="48.51286" lon="-3.41638">
        <ele>129</ele>
        <time>2022-04-21T23:32:10Z</time>
      </trkpt>
      <trkpt lat="48.51341" lon="-3.41733">
        <ele>121</ele>
        <time>2022-04-21T23:34:02Z</time>
      </trkpt>
      <trkpt lat="48.51424" lon="-3.41769">
        <ele>124</ele>
        <time>2022-04-21T23:35:57Z</time>
      </trkpt>
      <trkpt lat="48.51484" lon="-3.41761">
        <ele>131</ele>
        <time>2022-04-21T23:37:18Z</time>
      </trkpt>
      <trkpt lat="48.51458" lon="-3.41842">
        <ele>132</ele>
        <time>2022-04-21T23:38:37Z</time>
      </trkpt>
      <trkpt lat="48.51427" lon="-3.41898">
        <ele>131</ele>
        <time>2022-04-21T23:39:42Z</time>
      </trkpt>
      <trkpt lat="48.51399" lon="-3.41915">
        <ele>131</ele>
        <time>2022-04-21T23:40:22Z</time>
      </trkpt>
      <trkpt lat="48.51333" lon="-3.41915">
        <ele>130</ele>
        <time>2022-04-21T23:41:50Z</time>
      </trkpt>
      <trkpt lat="48.51365" lon="-3.41975">
        <ele>129</ele>
        <time>2022-04-21T23:42:58Z</time>
      </trkpt>
      <trkpt lat="48.51393" lon="-3.42018">
        <ele>127</ele>
        <time>2022-04-21T23:43:51Z</time>
      </trkpt>
      <trkpt lat="48.51441" lon="-3.42065">
        <ele>123</ele>
        <time>2022-04-21T23:45:08Z</time>
      </trkpt>
      <trkpt lat="48.51476" lon="-3.421">
        <ele>119</ele>
        <time>2022-04-21T23:46:04Z</time>
      </trkpt>
      <trkpt lat="48.51526" lon="-3.42207">
        <ele>112</ele>
        <time>2022-04-21T23:48:00Z</time>
      </trkpt>
      <trkpt lat="48.51521" lon="-3.42257">
        <ele>113</ele>
        <time>2022-04-21T23:48:44Z</time>
      </trkpt>
      <trkpt lat="48.51522" lon="-3.42311">
        <ele>116</ele>
        <time>2022-04-21T23:49:32Z</time>
      </trkpt>
      <trkpt lat="48.51574" lon="-3.42308">
        <ele>113</ele>
        <time>2022-04-21T23:50:41Z</time>
      </trkpt>
      <trkpt lat="48.51624" lon="-3.42429">
        <ele>120</ele>
        <time>2022-04-21T23:52:47Z</time>
      </trkpt>
      <trkpt lat="48.51628" lon="-3.42606">
        <ele>131</ele>
        <time>2022-04-21T23:55:24Z</time>
      </trkpt>
      <trkpt lat="48.5165" lon="-3.42691">
        <ele>129</ele>
        <time>2022-04-21T23:56:45Z</time>
      </trkpt>
      <trkpt lat="48.51676" lon="-3.42765">
        <ele>125</ele>
        <time>2022-04-21T23:57:59Z</time>
      </trkpt>
      <trkpt lat="48.51692" lon="-3.42845">
        <ele>129</ele>
        <time>2022-04-21T23:59:13Z</time>
      </trkpt>
      <trkpt lat="48.51729" lon="-3.42893">
        <ele>123</ele>
        <time>2022-04-22T00:00:18Z</time>
      </trkpt>
      <trkpt lat="48.51729" lon="-3.42969">
        <ele>125</ele>
        <time>2022-04-22T00:01:25Z</time>
      </trkpt>
      <trkpt lat="48.51756" lon="-3.43034">
        <ele>122</ele>
        <time>2022-04-22T00:02:33Z</time>
      </trkpt>
      <trkpt lat="48.51737" lon="-3.43184">
        <ele>131</ele>
        <time>2022-04-22T00:04:48Z</time>
      </trkpt>
      <trkpt lat="48.51691" lon="-3.43232">
        <ele>146</ele>
        <time>2022-04-22T00:06:02Z</time>
      </trkpt>
      <trkpt lat="48.51661" lon="-3.43278">
        <ele>155</ele>
        <time>2022-04-22T00:06:59Z</time>
      </trkpt>
      <trkpt lat="48.5162" lon="-3.43316">
        <ele>165</ele>
        <time>2022-04-22T00:08:04Z</time>
      </trkpt>
      <trkpt lat="48.51568" lon="-3.43343">
        <ele>174</ele>
        <time>2022-04-22T00:09:17Z</time>
      </trkpt>
      <trkpt lat="48.51544" lon="-3.43433">
        <ele>176</ele>
        <time>2022-04-22T00:10:43Z</time>
      </trkpt>
      <trkpt lat="48.51504" lon="-3.43462">
        <ele>178</ele>
        <time>2022-04-22T00:11:42Z</time>
      </trkpt>
      <trkpt lat="48.5144" lon="-3.43431">
        <ele>181</ele>
        <time>2022-04-22T00:13:12Z</time>
      </trkpt>
      <trkpt lat="48.51419" lon="-3.43494">
        <ele>184</ele>
        <time>2022-04-22T00:14:14Z</time>
      </trkpt>
      <trkpt lat="48.51413" lon="-3.43649">
        <ele>183</ele>
        <time>2022-04-22T00:16:31Z</time>
      </trkpt>
      <trkpt lat="48.51426" lon="-3.43791">
        <ele>181</ele>
        <time>2022-04-22T00:18:38Z</time>
      </trkpt>
      <trkpt lat="48.51451" lon="-3.43834">
        <ele>179</ele>
        <time>2022-04-22T00:19:29Z</time>
      </trkpt>
      <trkpt lat="48.51451" lon="-3.43891">
        <ele>178</ele>
        <time>2022-04-22T00:20:19Z</time>
      </trkpt>
      <trkpt lat="48.51474" lon="-3.43982">
        <ele>174</ele>
        <time>2022-04-22T00:21:45Z</time>
      </trkpt>
      <trkpt lat="48.51568" lon="-3.43968">
        <ele>166</ele>
        <time>2022-04-22T00:23:51Z</time>
      </trkpt>
      <trkpt lat="48.51606" lon="-3.44086">
        <ele>151</ele>
        <time>2022-04-22T00:25:47Z</time>
      </trkpt>
      <trkpt lat="48.51669" lon="-3.44022">
        <ele>148</ele>
        <time>2022-04-22T00:27:28Z</time>
      </trkpt>
      <trkpt lat="48.51715" lon="-3.43846">
        <ele>143</ele>
        <time>2022-04-22T00:30:16Z</time>
      </trkpt>
      <trkpt lat="48.51781" lon="-3.43763">
        <ele>130</ele>
        <time>2022-04-22T00:32:10Z</time>
      </trkpt>
      <trkpt lat="48.51833" lon="-3.43713">
        <ele>125</ele>
        <time>2022-04-22T00:33:33Z</time>
      </trkpt>
      <trkpt lat="48.51884" lon="-3.43635">
        <ele>120</ele>
        <time>2022-04-22T00:35:09Z</time>
      </trkpt>
      <trkpt lat="48.51918" lon="-3.43559">
        <ele>117</ele>
        <time>2022-04-22T00:36:30Z</time>
      </trkpt>
      <trkpt lat="48.51977" lon="-3.43564">
        <ele>123</ele>
        <time>2022-04-22T00:37:49Z</time>
      </trkpt>
      <trkpt lat="48.52025" lon="-3.43408">
        <ele>125</ele>
        <time>2022-04-22T00:40:21Z</time>
      </trkpt>
      <trkpt lat="48.52069" lon="-3.43384">
        <ele>133</ele>
        <time>2022-04-22T00:41:24Z</time>
      </trkpt>
      <trkpt lat="48.52121" lon="-3.43306">
        <ele>140</ele>
        <time>2022-04-22T00:43:02Z</time>
      </trkpt>
      <trkpt lat="48.52203" lon="-3.43222">
        <ele>150</ele>
        <time>2022-04-22T00:45:14Z</time>
      </trkpt>
      <trkpt lat="48.52297" lon="-3.43319">
        <ele>161</ele>
        <time>2022-04-22T00:47:46Z</time>
      </trkpt>
      <trkpt lat="48.52352" lon="-3.43254">
        <ele>165</ele>
        <time>2022-04-22T00:49:19Z</time>
      </trkpt>
      <trkpt lat="48.52385" lon="-3.43144">
        <ele>160</ele>
        <time>2022-04-22T00:51:06Z</time>
      </trkpt>
      <trkpt lat="48.52453" lon="-3.43035">
        <ele>161</ele>
        <time>2022-04-22T00:53:18Z</time>
      </trkpt>
      <trkpt lat="48.52505" lon="-3.43006">
        <ele>163</ele>
        <time>2022-04-22T00:54:32Z</time>
      </trkpt>
      <trkpt lat="48.52647" lon="-3.42961">
        <ele>170</ele>
        <time>2022-04-22T00:57:46Z</time>
      </trkpt>
      <trkpt lat="48.52737" lon="-3.42907">
        <ele>171</ele>
        <time>2022-04-22T00:59:55Z</time>
      </trkpt>
      <trkpt lat="48.52909" lon="-3.42792">
        <ele>181</ele>
        <time>2022-04-22T01:04:06Z</time>
      </trkpt>
      <trkpt lat="48.52963" lon="-3.42578">
        <ele>186</ele>
        <time>2022-04-22T01:07:28Z</time>
      </trkpt>
      <trkpt lat="48.52917" lon="-3.42507">
        <ele>184</ele>
        <time>2022-04-22T01:08:56Z</time>
      </trkpt>
      <trkpt lat="48.52866" lon="-3.42442">
        <ele>181</ele>
        <time>2022-04-22T01:10:25Z</time>
      </trkpt>
      <trkpt lat="48.5282" lon="-3.42359">
        <ele>178</ele>
        <time>2022-04-22T01:12:01Z</time>
      </trkpt>
      <trkpt lat="48.52859" lon="-3.4233">
        <ele>178</ele>
        <time>2022-04-22T01:12:59Z</time>
      </trkpt>
      <trkpt lat="48.52872" lon="-3.42283">
        <ele>177</ele>
        <time>2022-04-22T01:13:44Z</time>
      </trkpt>
      <trkpt lat="48.52908" lon="-3.42249">
        <ele>177</ele>
        <time>2022-04-22T01:14:40Z</time>
      </trkpt>
      <trkpt lat="48.52936" lon="-3.42137">
        <ele>176</ele>
        <time>2022-04-22T01:16:26Z</time>
      </trkpt>
      <trkpt lat="48.52951" lon="-3.42022">
        <ele>174</ele>
        <time>2022-04-22T01:18:10Z</time>
      </trkpt>
      <trkpt lat="48.52956" lon="-3.41886">
        <ele>173</ele>
        <time>2022-04-22T01:20:10Z</time>
      </trkpt>
      <trkpt lat="48.52944" lon="-3.41766">
        <ele>172</ele>
        <time>2022-04-22T01:21:57Z</time>
      </trkpt>
      <trkpt lat="48.52945" lon="-3.41652">
        <ele>174</ele>
        <time>2022-04-22T01:23:38Z</time>
      </trkpt>
      <trkpt lat="48.53001" lon="-3.41652">
        <ele>173</ele>
        <time>2022-04-22T01:24:53Z</time>
      </trkpt>
      <trkpt lat="48.53006" lon="-3.41527">
        <ele>172</ele>
        <time>2022-04-22T01:26:44Z</time>
      </trkpt>
      <trkpt lat="48.53021" lon="-3.41431">
        <ele>172</ele>
        <time>2022-04-22T01:28:11Z</time>
      </trkpt>
      <trkpt lat="48.5306" lon="-3.41305">
        <ele>171</ele>
        <time>2022-04-22T01:30:14Z</time>
      </trkpt>
      <trkpt lat="48.53044" lon="-3.41217">
        <ele>170</ele>
        <time>2022-04-22T01:31:34Z</time>
      </trkpt>
      <trkpt lat="48.53076" lon="-3.41136">
        <ele>170</ele>
        <time>2022-04-22T01:32:58Z</time>
      </trkpt>
      <trkpt lat="48.53089" lon="-3.41065">
        <ele>170</ele>
        <time>2022-04-22T01:34:03Z</time>
      </trkpt>
      <trkpt lat="48.53132" lon="-3.40961">
        <ele>171</ele>
        <time>2022-04-22T01:35:51Z</time>
      </trkpt>
      <trkpt lat="48.53161" lon="-3.40867">
        <ele>171</ele>
        <time>2022-04-22T01:37:23Z</time>
      </trkpt>
      <trkpt lat="48.53193" lon="-3.40762">
        <ele>170</ele>
        <time>2022-04-22T01:39:05Z</time>
      </trkpt>
      <trkpt lat="48.53253" lon="-3.40648">
        <ele>166</ele>
        <time>2022-04-22T01:41:14Z</time>
      </trkpt>
      <trkpt lat="48.53303" lon="-3.40564">
        <ele>163</ele>
        <time>2022-04-22T01:42:53Z</time>
      </trkpt>
      <trkpt lat="48.53355" lon="-3.4046">
        <ele>159</ele>
        <time>2022-04-22T01:44:49Z</time>
      </trkpt>
      <trkpt lat="48.53403" lon="-3.40353">
        <ele>155</ele>
        <time>2022-04-22T01:46:43Z</time>
      </trkpt>
      <trkpt lat="48.53436" lon="-3.40345">
        <ele>154</ele>
        <time>2022-04-22T01:47:27Z</time>
      </trkpt>
      <trkpt lat="48.53468" lon="-3.403">
        <ele>152</ele>
        <time>2022-04-22T01:48:26Z</time>
      </trkpt>
      <trkpt lat="48.53475" lon="-3.40253">
        <ele>151</ele>
        <time>2022-04-22T01:49:08Z</time>
      </trkpt>
      <trkpt lat="48.53467" lon="-3.40226">
        <ele>150</ele>
        <time>2022-04-22T01:49:34Z</time>
      </trkpt>
      <trkpt lat="48.5353" lon="-3.40137">
        <ele>147</ele>
        <time>2022-04-22T01:51:30Z</time>
      </trkpt>
      <trkpt lat="48.53586" lon="-3.40075">
        <ele>144</ele>
        <time>2022-04-22T01:53:02Z</time>
      </trkpt>
      <trkpt lat="48.53657" lon="-3.40165">
        <ele>141</ele>
        <time>2022-04-22T01:55:06Z</time>
      </trkpt>
      <trkpt lat="48.53702" lon="-3.40094">
        <ele>136</ele>
        <time>2022-04-22T01:56:33Z</time>
      </trkpt>
      <trkpt lat="48.53724" lon="-3.4008">
        <ele>134</ele>
        <time>2022-04-22T01:57:05Z</time>
      </trkpt>
      <trkpt lat="48.53768" lon="-3.40126">
        <ele>128</ele>
        <time>2022-04-22T01:58:16Z</time>
      </trkpt>
      <trkpt lat="48.53791" lon="-3.40024">
        <ele>122</ele>
        <time>2022-04-22T01:59:51Z</time>
      </trkpt>
      <trkpt lat="48.53792" lon="-3.39972">
        <ele>122</ele>
        <time>2022-04-22T02:00:37Z</time>
      </trkpt>
      <trkpt lat="48.53844" lon="-3.39972">
        <ele>117</ele>
        <time>2022-04-22T02:01:47Z</time>
      </trkpt>
      <trkpt lat="48.53889" lon="-3.39921">
        <ele>112</ele>
        <time>2022-04-22T02:03:02Z</time>
      </trkpt>
      <trkpt lat="48.53935" lon="-3.39821">
        <ele>101</ele>
        <time>2022-04-22T02:04:49Z</time>
      </trkpt>
      <trkpt lat="48.53981" lon="-3.39785">
        <ele>102</ele>
        <time>2022-04-22T02:05:58Z</time>
      </trkpt>
      <trkpt lat="48.5401" lon="-3.3978">
        <ele>102</ele>
        <time>2022-04-22T02:06:37Z</time>
      </trkpt>
      <trkpt lat="48.54046" lon="-3.39787">
        <ele>103</ele>
        <time>2022-04-22T02:07:26Z</time>
      </trkpt>
      <trkpt lat="48.54098" lon="-3.39777">
        <ele>102</ele>
        <time>2022-04-22T02:08:36Z</time>
      </trkpt>
      <trkpt lat="48.5416" lon="-3.39796">
        <ele>103</ele>
        <time>2022-04-22T02:10:00Z</time>
      </trkpt>
      <trkpt lat="48.54202" lon="-3.3978">
        <ele>100</ele>
        <time>2022-04-22T02:10:58Z</time>
      </trkpt>
      <trkpt lat="48.54234" lon="-3.39779">
        <ele>99</ele>
        <time>2022-04-22T02:11:41Z</time>
      </trkpt>
      <trkpt lat="48.54256" lon="-3.39796">
        <ele>100</ele>
        <time>2022-04-22T02:12:14Z</time>
      </trkpt>
      <trkpt lat="48.54298" lon="-3.39787">
        <ele>100</ele>
        <time>2022-04-22T02:13:10Z</time>
      </trkpt>
      <trkpt lat="48.5432" lon="-3.3976">
        <ele>96</ele>
        <time>2022-04-22T02:13:48Z</time>
      </trkpt>
      <trkpt lat="48.54372" lon="-3.39773">
        <ele>97</ele>
        <time>2022-04-22T02:14:58Z</time>
      </trkpt>
      <trkpt lat="48.5444" lon="-3.39775">
        <ele>95</ele>
        <time>2022-04-22T02:16:29Z</time>
      </trkpt>
      <trkpt lat="48.54487" lon="-3.39809">
        <ele>94</ele>
        <time>2022-04-22T02:17:39Z</time>
      </trkpt>
      <trkpt lat="48.54534" lon="-3.39859">
        <ele>95</ele>
        <time>2022-04-22T02:18:55Z</time>
      </trkpt>
      <trkpt lat="48.5456" lon="-3.39885">
        <ele>96</ele>
        <time>2022-04-22T02:19:37Z</time>
      </trkpt>
      <trkpt lat="48.54621" lon="-3.39917">
        <ele>95</ele>
        <time>2022-04-22T02:21:03Z</time>
      </trkpt>
    </trkseg>
  </trk>
</gpx>